createdAt,value
2018-09-03T00:02:05.811Z,101326.61
2018-09-03T00:04:35.618Z,101323.98
2018-09-03T00:07:05.785Z,101317.47
2018-09-03T00:09:42.366Z,101318.70
2018-09-03T00:12:12.873Z,101314.84
2018-09-03T00:14:42.532Z,101314.42
2018-09-03T00:17:12.302Z,101307.70
2018-09-03T00:19:41.968Z,101295.94
2018-09-03T00:22:12.706Z,101288.52
2018-09-03T00:24:42.406Z,101289.91
2018-09-03T00:27:12.095Z,101284.70
2018-09-03T00:29:41.841Z,101278.44
2018-09-03T00:32:16.683Z,101262.72
2018-09-03T00:34:51.510Z,101264.06
2018-09-03T00:37:26.469Z,101259.52
2018-09-03T00:40:01.361Z,101265.33
2018-09-03T00:42:38.065Z,101255.75
2018-09-03T00:45:13.029Z,101250.27
2018-09-03T00:47:42.743Z,101253.23
2018-09-03T00:50:14.340Z,101254.31
2018-09-03T00:52:44.039Z,101247.41
2018-09-03T00:55:13.855Z,101252.59
2018-09-03T00:57:43.573Z,101242.88
2018-09-03T01:00:13.311Z,101253.84
2018-09-03T01:02:43.138Z,101250.33
2018-09-03T01:05:12.854Z,101245.05
2018-09-03T01:07:42.551Z,101247.19
2018-09-03T01:10:12.261Z,101249.42
2018-09-03T01:12:42.538Z,101245.92
2018-09-03T01:15:13.242Z,101245.95
2018-09-03T01:17:43.099Z,101250.31
2018-09-03T01:20:12.861Z,101256.80
2018-09-03T01:22:42.649Z,101251.45
2018-09-03T01:25:12.343Z,101247.98
2018-09-03T01:27:41.993Z,101245.44
2018-09-03T01:30:11.691Z,101256.42
2018-09-03T01:32:41.402Z,101248.61
2018-09-03T01:35:11.116Z,101248.26
2018-09-03T01:37:40.850Z,101249.63
2018-09-03T01:40:10.644Z,101245.73
2018-09-03T01:42:40.361Z,101242.22
2018-09-03T01:45:10.215Z,101240.92
2018-09-03T01:47:39.978Z,101245.36
2018-09-03T01:50:09.667Z,101255.44
2018-09-03T01:52:39.541Z,101260.64
2018-09-03T01:55:09.317Z,101266.70
2018-09-03T01:57:38.992Z,101279.28
2018-09-03T02:00:08.817Z,101278.77
2018-09-03T02:02:38.494Z,101289.72
2018-09-03T02:05:08.292Z,101291.37
2018-09-03T02:07:37.983Z,101288.31
2018-09-03T02:10:07.715Z,101285.67
2018-09-03T02:12:37.437Z,101294.03
2018-09-03T02:15:07.446Z,101298.39
2018-09-03T02:17:37.230Z,101295.78
2018-09-03T02:20:07.211Z,101293.94
2018-09-03T02:22:37.809Z,101284.77
2018-09-03T02:25:07.881Z,101282.96
2018-09-03T02:27:37.628Z,101285.65
2018-09-03T02:30:07.525Z,101280.40
2018-09-03T02:32:37.267Z,101273.84
2018-09-03T02:35:07.106Z,101262.00
2018-09-03T02:37:36.773Z,101257.59
2018-09-03T02:40:06.900Z,101251.54
2018-09-03T02:42:36.692Z,101266.52
2018-09-03T02:45:07.736Z,101271.78
2018-09-03T02:47:37.575Z,101271.28
2018-09-03T02:50:07.813Z,101273.47
2018-09-03T02:52:37.761Z,101279.14
2018-09-03T02:55:08.052Z,101272.52
2018-09-03T02:57:37.916Z,101269.91
2018-09-03T03:00:07.890Z,101261.60
2018-09-03T03:02:37.608Z,101260.34
2018-09-03T03:05:07.596Z,101251.63
2018-09-03T03:07:37.668Z,101252.99
2018-09-03T03:10:07.558Z,101254.78
2018-09-03T03:12:37.305Z,101248.24
2018-09-03T03:15:07.326Z,101243.85
2018-09-03T03:17:37.094Z,101241.22
2018-09-03T03:20:07.244Z,101237.30
2018-09-03T03:22:36.971Z,101236.89
2018-09-03T03:25:07.059Z,101229.00
2018-09-03T03:27:36.893Z,101233.39
2018-09-03T03:30:08.585Z,101230.80
2018-09-03T03:32:38.631Z,101232.07
2018-09-03T03:35:10.048Z,101234.69
2018-09-03T03:37:43.780Z,101235.59
2018-09-03T03:40:13.812Z,101234.71
2018-09-03T03:42:43.769Z,101230.77
2018-09-03T03:45:13.472Z,101224.23
2018-09-03T03:47:43.334Z,101220.30
2018-09-03T03:50:13.042Z,101214.60
2018-09-03T03:52:42.800Z,101206.28
2018-09-03T03:55:12.564Z,101208.44
2018-09-03T03:57:42.255Z,101206.70
2018-09-03T04:00:11.983Z,101208.92
2018-09-03T04:02:41.783Z,101203.20
2018-09-03T04:05:11.532Z,101200.58
2018-09-03T04:07:41.285Z,101197.95
2018-09-03T04:10:11.207Z,101200.64
2018-09-03T04:12:44.952Z,101207.20
2018-09-03T04:15:14.613Z,101212.41
2018-09-03T04:17:44.280Z,101215.02
2018-09-03T04:20:13.927Z,101211.97
2018-09-03T04:22:43.685Z,101208.03
2018-09-03T04:25:13.347Z,101208.02
2018-09-03T04:27:43.068Z,101199.71
2018-09-03T04:30:12.845Z,101198.38
2018-09-03T04:32:42.647Z,101196.19
2018-09-03T04:35:12.425Z,101204.12
2018-09-03T04:37:42.370Z,101201.94
2018-09-03T04:40:12.507Z,101202.82
2018-09-03T04:42:42.250Z,101193.16
2018-09-03T04:45:12.010Z,101188.75
2018-09-03T04:47:41.738Z,101186.59
2018-09-03T04:50:11.458Z,101183.55
2018-09-03T04:52:41.261Z,101182.64
2018-09-03T04:55:11.021Z,101188.77
2018-09-03T04:57:40.698Z,101180.89
2018-09-03T05:00:10.892Z,101190.06
2018-09-03T05:02:40.603Z,101188.38
2018-09-03T05:05:10.431Z,101193.97
2018-09-03T05:07:41.413Z,101189.14
2018-09-03T05:10:10.879Z,101193.53
2018-09-03T05:12:40.840Z,101187.02
2018-09-03T05:15:10.644Z,101184.39
2018-09-03T05:17:40.307Z,101194.00
2018-09-03T05:20:10.046Z,101190.95
2018-09-03T05:22:39.740Z,101198.38
2018-09-03T05:25:09.503Z,101195.70
2018-09-03T05:27:39.284Z,101196.58
2018-09-03T05:30:09.825Z,101198.72
2018-09-03T05:32:39.667Z,101202.64
2018-09-03T05:35:09.360Z,101203.52
2018-09-03T05:37:39.074Z,101199.97
2018-09-03T05:40:08.984Z,101196.42
2018-09-03T05:42:38.728Z,101191.97
2018-09-03T05:45:08.566Z,101188.84
2018-09-03T05:47:38.266Z,101187.49
2018-09-03T05:50:08.194Z,101195.33
2018-09-03T05:52:37.869Z,101194.88
2018-09-03T05:55:07.761Z,101185.45
2018-09-03T05:57:37.559Z,101179.23
2018-09-03T06:00:08.037Z,101170.42
2018-09-03T06:02:37.873Z,101171.97
2018-09-03T06:05:07.875Z,101169.28
2018-09-03T06:07:38.923Z,101175.92
2018-09-03T06:10:08.706Z,101173.48
2018-09-03T06:12:38.858Z,101182.49
2018-09-03T06:15:08.695Z,101175.98
2018-09-03T06:17:38.521Z,101180.45
2018-09-03T06:20:08.281Z,101172.76
2018-09-03T06:22:38.038Z,101166.55
2018-09-03T06:25:07.869Z,101168.55
2018-09-03T06:27:37.659Z,101170.91
2018-09-03T06:30:07.373Z,101173.63
2018-09-03T06:32:37.140Z,101175.72
2018-09-03T06:35:06.867Z,101173.28
2018-09-03T06:37:36.724Z,101172.05
2018-09-03T06:40:06.552Z,101162.08
2018-09-03T06:42:36.361Z,101154.31
2018-09-03T06:45:06.293Z,101148.35
2018-09-03T06:47:36.176Z,101148.48
2018-09-03T06:50:06.201Z,101152.25
2018-09-03T06:52:36.064Z,101147.75
2018-09-03T06:55:06.280Z,101152.40
2018-09-03T06:57:36.158Z,101147.94
2018-09-03T07:00:07.141Z,101146.51
2018-09-03T07:02:36.961Z,101150.47
2018-09-03T07:05:06.709Z,101157.48
2018-09-03T07:07:36.545Z,101158.13
2018-09-03T07:10:08.045Z,101150.14
2018-09-03T07:12:38.165Z,101156.28
2018-09-03T07:15:08.337Z,101157.58
2018-09-03T07:17:38.472Z,101163.30
2018-09-03T07:20:08.353Z,101162.58
2018-09-03T07:22:38.136Z,101161.73
2018-09-03T07:25:07.999Z,101158.92
2018-09-03T07:27:37.881Z,101161.12
2018-09-03T07:30:07.698Z,101164.73
2018-09-03T07:32:37.380Z,101164.21
2018-09-03T07:35:07.226Z,101153.89
2018-09-03T07:37:37.355Z,101163.73
2018-09-03T07:40:08.305Z,101153.28
2018-09-03T07:42:38.136Z,101158.78
2018-09-03T07:45:07.925Z,101157.88
2018-09-03T07:47:37.705Z,101155.98
2018-09-03T07:50:07.711Z,101161.49
2018-09-03T07:52:38.012Z,101161.11
2018-09-03T07:55:07.877Z,101160.45
2018-09-03T07:57:37.822Z,101157.70
2018-09-03T08:00:08.235Z,101161.56
2018-09-03T08:02:38.012Z,101162.66
2018-09-03T08:05:08.340Z,101163.98
2018-09-03T08:07:38.188Z,101159.45
2018-09-03T08:10:10.035Z,101161.16
2018-09-03T08:12:40.251Z,101165.12
2018-09-03T08:15:10.254Z,101168.56
2018-09-03T08:17:40.012Z,101159.16
2018-09-03T08:20:10.028Z,101154.61
2018-09-03T08:22:39.742Z,101154.23
2018-09-03T08:25:09.500Z,101145.94
2018-09-03T08:27:39.246Z,101150.41
2018-09-03T08:30:09.462Z,101141.06
2018-09-03T08:32:39.177Z,101134.87
2018-09-03T08:35:09.097Z,101130.20
2018-09-03T08:37:38.779Z,101135.50
2018-09-03T08:40:08.606Z,101129.55
2018-09-03T08:42:38.518Z,101135.45
2018-09-03T08:45:08.550Z,101141.05
2018-09-03T08:47:38.386Z,101144.91
2018-09-03T08:50:08.195Z,101154.02
2018-09-03T08:52:37.927Z,101153.31
2018-09-03T08:55:07.640Z,101159.63
2018-09-03T08:57:37.458Z,101149.43
2018-09-03T09:00:07.636Z,101153.39
2018-09-03T09:02:37.347Z,101155.48
2018-09-03T09:05:07.054Z,101151.00
2018-09-03T09:07:36.862Z,101156.05
2018-09-03T09:10:06.709Z,101155.03
2018-09-03T09:12:36.398Z,101154.75
2018-09-03T09:15:06.367Z,101155.30
2018-09-03T09:17:36.151Z,101150.88
2018-09-03T09:20:06.003Z,101159.06
2018-09-03T09:22:35.750Z,101150.78
2018-09-03T09:25:05.745Z,101155.67
2018-09-03T09:27:35.400Z,101158.66
2018-09-03T09:30:06.125Z,101156.40
2018-09-03T09:32:35.887Z,101161.48
2018-09-03T09:35:05.762Z,101156.08
2018-09-03T09:37:35.420Z,101147.59
2018-09-03T09:40:05.298Z,101144.89
2018-09-03T09:42:35.099Z,101141.63
2018-09-03T09:45:04.943Z,101130.72
2018-09-03T09:47:34.645Z,101126.45
2018-09-03T09:50:04.567Z,101118.16
2018-09-03T09:52:34.633Z,101130.42
2018-09-03T09:55:04.741Z,101124.48
2018-09-03T09:57:34.472Z,101135.44
2018-09-03T10:00:04.287Z,101126.27
2018-09-03T10:02:34.037Z,101122.14
2018-09-03T10:05:03.762Z,101119.95
2018-09-03T10:07:33.502Z,101116.90
2018-09-03T10:10:03.272Z,101124.23
2018-09-03T10:12:33.772Z,101120.70
2018-09-03T10:15:03.658Z,101114.25
2018-09-03T10:17:33.365Z,101109.41
2018-09-03T10:20:03.126Z,101104.58
2018-09-03T10:22:32.983Z,101098.50
2018-09-03T10:25:02.790Z,101104.52
2018-09-03T10:27:32.463Z,101101.63
2018-09-03T10:30:02.572Z,101100.11
2018-09-03T10:32:32.645Z,101095.17
2018-09-03T10:35:02.366Z,101092.27
2018-09-03T10:37:32.129Z,101090.64
2018-09-03T10:40:01.902Z,101087.20
2018-09-03T10:42:31.549Z,101077.72
2018-09-03T10:45:01.388Z,101079.08
2018-09-03T10:47:31.200Z,101073.70
2018-09-03T10:50:00.790Z,101082.94
2018-09-03T10:52:30.552Z,101082.80
2018-09-03T10:55:00.279Z,101088.30
2018-09-03T10:57:29.957Z,101088.50
2018-09-03T10:59:59.791Z,101080.75
2018-09-03T11:02:29.618Z,101083.12
2018-09-03T11:04:59.282Z,101083.86
2018-09-03T11:07:28.967Z,101078.64
2018-09-03T11:09:58.915Z,101071.61
2018-09-03T11:12:28.648Z,101074.26
2018-09-03T11:14:58.295Z,101063.86
2018-09-03T11:17:28.061Z,101051.78
2018-09-03T11:20:00.011Z,101048.52
2018-09-03T11:22:29.862Z,101051.13
2018-09-03T11:25:00.335Z,101048.14
2018-09-03T11:27:30.200Z,101042.95
2018-09-03T11:30:00.027Z,101048.08
2018-09-03T11:32:29.785Z,101047.52
2018-09-03T11:34:59.613Z,101039.00
2018-09-03T11:37:29.311Z,101035.14
2018-09-03T11:39:59.075Z,101044.14
2018-09-03T11:42:28.723Z,101035.89
2018-09-03T11:44:58.390Z,101039.98
2018-09-03T11:47:28.087Z,101034.12
2018-09-03T11:49:57.945Z,101034.55
2018-09-03T11:52:27.691Z,101043.15
2018-09-03T11:54:57.516Z,101027.27
2018-09-03T11:57:27.314Z,101034.27
2018-09-03T11:59:57.173Z,101034.86
2018-09-03T12:02:27.211Z,101036.03
2018-09-03T12:04:57.029Z,101034.53
2018-09-03T12:07:27.892Z,101046.23
2018-09-03T12:09:57.937Z,101042.99
2018-09-03T12:12:27.866Z,101039.44
2018-09-03T12:15:00.448Z,101035.28
2018-09-03T12:17:30.504Z,101031.16
2018-09-03T12:20:00.714Z,101036.04
2018-09-03T12:22:30.713Z,101032.41
2018-09-03T12:25:01.676Z,101030.53
2018-09-03T12:27:31.341Z,101025.58
2018-09-03T12:30:01.048Z,101022.51
2018-09-03T12:32:30.707Z,101024.84
2018-09-03T12:35:00.498Z,101025.62
2018-09-03T12:37:30.280Z,101025.60
2018-09-03T12:40:00.053Z,101024.17
2018-09-03T12:42:29.783Z,101018.45
2018-09-03T12:44:59.548Z,101027.55
2018-09-03T12:47:29.440Z,101027.39
2018-09-03T12:49:59.089Z,101022.89
2018-09-03T12:52:28.794Z,101018.72
2018-09-03T12:54:58.511Z,101023.75
2018-09-03T12:57:28.199Z,101027.27
2018-09-03T13:00:05.150Z,101022.81
2018-09-03T13:02:27.706Z,101022.12
2018-09-03T13:04:57.402Z,101021.86
2018-09-03T13:07:27.154Z,101017.88
2018-09-03T13:09:56.892Z,101021.22
2018-09-03T13:12:26.864Z,101025.30
2018-09-03T13:14:56.741Z,101020.05
2018-09-03T13:17:26.535Z,101018.45
2018-09-03T13:19:56.258Z,101017.79
2018-09-03T13:22:25.950Z,101020.53
2018-09-03T13:24:55.683Z,101017.95
2018-09-03T13:27:25.421Z,101021.43
2018-09-03T13:29:55.291Z,101021.27
2018-09-03T13:32:24.991Z,101012.17
2018-09-03T13:34:54.733Z,101007.11
2018-09-03T13:37:24.422Z,101003.02
2018-09-03T13:39:54.218Z,100996.60
2018-09-03T13:42:24.224Z,100999.37
2018-09-03T13:44:53.967Z,100997.78
2018-09-03T13:47:24.280Z,101001.87
2018-09-03T13:49:54.139Z,100999.77
2018-09-03T13:52:23.977Z,100992.99
2018-09-03T13:54:53.869Z,100994.30
2018-09-03T13:57:23.548Z,101001.88
2018-09-03T13:59:53.359Z,101000.25
2018-09-03T14:02:25.136Z,101005.42
2018-09-03T14:04:55.104Z,101004.88
2018-09-03T14:07:24.812Z,100998.61
2018-09-03T14:09:54.638Z,100999.34
2018-09-03T14:12:24.710Z,101001.64
2018-09-03T14:14:54.454Z,101002.91
2018-09-03T14:17:24.289Z,100996.66
2018-09-03T14:19:53.992Z,101001.84
2018-09-03T14:22:23.872Z,100998.79
2018-09-03T14:24:53.538Z,101000.30
2018-09-03T14:27:23.285Z,101001.08
2018-09-03T14:29:53.235Z,100991.25
2018-09-03T14:32:23.204Z,100996.64
2018-09-03T14:34:52.908Z,100990.09
2018-09-03T14:37:22.828Z,100993.11
2018-09-03T14:39:52.569Z,100991.69
2018-09-03T14:42:22.312Z,100995.99
2018-09-03T14:44:52.078Z,100995.23
2018-09-03T14:47:21.825Z,100991.80
2018-09-03T14:49:51.600Z,100991.98
2018-09-03T14:52:21.328Z,100985.27
2018-09-03T14:54:51.386Z,100980.91
2018-09-03T14:57:21.107Z,100979.98
2018-09-03T14:59:51.673Z,100977.88
2018-09-03T15:02:22.469Z,100981.86
2018-09-03T15:04:52.238Z,100982.10
2018-09-03T15:07:23.715Z,100979.58
2018-09-03T15:09:53.585Z,100981.31
2018-09-03T15:12:23.563Z,100978.18
2018-09-03T15:14:57.597Z,100981.82
2018-09-03T15:17:28.232Z,100981.86
2018-09-03T15:19:58.630Z,100977.69
2018-09-03T15:22:28.467Z,100976.21
2018-09-03T15:24:59.157Z,100978.50
2018-09-03T15:27:28.943Z,100974.36
2018-09-03T15:29:58.969Z,100976.07
2018-09-03T15:32:28.796Z,100975.38
2018-09-03T15:34:58.629Z,100981.28
2018-09-03T15:37:28.360Z,100971.91
2018-09-03T15:39:58.091Z,100972.52
2018-09-03T15:42:27.798Z,100979.83
2018-09-03T15:44:57.576Z,100976.74
2018-09-03T15:47:27.261Z,100969.66
2018-09-03T15:49:57.054Z,100971.30
2018-09-03T15:52:26.856Z,100971.39
2018-09-03T15:54:56.607Z,100975.67
2018-09-03T15:57:26.663Z,100972.34
2018-09-03T15:59:56.471Z,100967.66
2018-09-03T16:02:26.182Z,100974.25
2018-09-03T16:04:55.973Z,100974.16
2018-09-03T16:07:25.750Z,100972.21
2018-09-03T16:09:55.612Z,100970.19
2018-09-03T16:12:25.334Z,100970.55
2018-09-03T16:14:55.072Z,100979.27
2018-09-03T16:17:24.920Z,100979.20
2018-09-03T16:19:54.740Z,100975.78
2018-09-03T16:22:24.639Z,100980.63
2018-09-03T16:24:54.405Z,100969.58
2018-09-03T16:27:24.148Z,100966.13
2018-09-03T16:29:53.894Z,100964.83
2018-09-03T16:32:23.755Z,100961.60
2018-09-03T16:34:53.460Z,100960.91
2018-09-03T16:37:23.305Z,100966.81
2018-09-03T16:39:55.223Z,100961.17
2018-09-03T16:42:24.978Z,100962.64
2018-09-03T16:44:54.718Z,100964.17
2018-09-03T16:47:24.501Z,100959.73
2018-09-03T16:49:54.265Z,100970.23
2018-09-03T16:52:24.043Z,100964.80
2018-09-03T16:54:54.062Z,100968.14
2018-09-03T16:57:24.505Z,100962.95
2018-09-03T16:59:54.284Z,100962.78
2018-09-03T17:02:24.061Z,100962.91
2018-09-03T17:04:53.889Z,100964.31
2018-09-03T17:07:23.812Z,100967.63
2018-09-03T17:09:53.629Z,100960.56
2018-09-03T17:12:23.385Z,100960.48
2018-09-03T17:14:53.189Z,100959.37
2018-09-03T17:17:23.226Z,100959.45
2018-09-03T17:19:53.066Z,100959.44
2018-09-03T17:22:22.874Z,100962.10
2018-09-03T17:24:52.695Z,100959.54
2018-09-03T17:27:22.408Z,100965.83
2018-09-03T17:29:52.157Z,100964.09
2018-09-03T17:32:21.938Z,100964.83
2018-09-03T17:34:51.711Z,100967.12
2018-09-03T17:37:21.491Z,100977.24
2018-09-03T17:39:51.308Z,100968.98
2018-09-03T17:42:21.015Z,100978.23
2018-09-03T17:44:51.812Z,100972.28
2018-09-03T17:47:21.518Z,100978.05
2018-09-03T17:49:51.234Z,100971.30
2018-09-03T17:52:20.937Z,100969.73
2018-09-03T17:54:50.669Z,100969.73
2018-09-03T17:57:20.435Z,100970.80
2018-09-03T17:59:50.238Z,100967.13
2018-09-03T18:02:20.235Z,100970.44
2018-09-03T18:04:50.005Z,100967.58
2018-09-03T18:07:20.477Z,100970.46
2018-09-03T18:09:50.189Z,100971.45
2018-09-03T18:12:20.016Z,100963.92
2018-09-03T18:14:49.780Z,100974.42
2018-09-03T18:17:19.534Z,100977.13
2018-09-03T18:19:49.375Z,100977.00
2018-09-03T18:22:19.101Z,100982.80
2018-09-03T18:24:48.988Z,100978.86
2018-09-03T18:27:20.975Z,100980.55
2018-09-03T18:29:50.732Z,100977.54
2018-09-03T18:32:20.546Z,100979.05
2018-09-03T18:34:50.286Z,100976.46
2018-09-03T18:37:28.440Z,100976.46
2018-09-03T18:40:08.437Z,100974.94
2018-09-03T18:42:38.407Z,100986.89
2018-09-03T18:45:09.692Z,100989.05
2018-09-03T18:47:39.553Z,100986.44
2018-09-03T18:50:12.983Z,100988.33
2018-09-03T18:52:43.033Z,100986.71
2018-09-03T18:55:14.172Z,100984.59
2018-09-03T18:57:44.250Z,100983.35
2018-09-03T19:00:14.516Z,100989.27
2018-09-03T19:02:44.277Z,100985.87
2018-09-03T19:05:14.073Z,100991.73
2018-09-03T19:07:43.842Z,100989.61
2018-09-03T19:10:13.763Z,100991.38
2018-09-03T19:12:43.791Z,100991.05
2018-09-03T19:15:13.629Z,100991.59
2018-09-03T19:17:43.781Z,100991.28
2018-09-03T19:20:13.889Z,100991.84
2018-09-03T19:22:43.807Z,100988.40
2018-09-03T19:25:13.565Z,100988.91
2018-09-03T19:27:43.449Z,100984.60
2018-09-03T19:30:14.426Z,100995.27
2018-09-03T19:32:44.217Z,100988.73
2018-09-03T19:35:14.016Z,100991.91
2018-09-03T19:37:43.767Z,100994.56
2018-09-03T19:40:13.552Z,100988.47
2018-09-03T19:42:43.306Z,100993.80
2018-09-03T19:45:13.343Z,100991.22
2018-09-03T19:47:43.131Z,100993.04
2018-09-03T19:50:12.946Z,100995.73
2018-09-03T19:52:42.756Z,100989.13
2018-09-03T19:55:12.653Z,100980.31
2018-09-03T19:57:42.427Z,100981.17
2018-09-03T20:00:12.253Z,100976.81
2018-09-03T20:02:42.100Z,100973.31
2018-09-03T20:05:11.938Z,100972.50
2018-09-03T20:07:41.794Z,100974.69
2018-09-03T20:10:11.538Z,100975.55
2018-09-03T20:12:41.432Z,100967.64
2018-09-03T20:15:14.195Z,100969.37
2018-09-03T20:17:43.987Z,100965.81
2018-09-03T20:20:13.763Z,100967.59
2018-09-03T20:22:43.524Z,100970.69
2018-09-03T20:25:13.466Z,100972.86
2018-09-03T20:27:43.509Z,100973.73
2018-09-03T20:30:13.323Z,100963.69
2018-09-03T20:32:43.388Z,100968.91
2018-09-03T20:35:13.170Z,100975.30
2018-09-03T20:37:42.954Z,100967.89
2018-09-03T20:40:13.271Z,100964.89
2018-09-03T20:42:43.100Z,100966.02
2018-09-03T20:45:14.506Z,100960.58
2018-09-03T20:47:44.257Z,100961.29
2018-09-03T20:50:14.149Z,100964.11
2018-09-03T20:52:43.936Z,100966.79
2018-09-03T20:55:14.310Z,100960.75
2018-09-03T20:57:44.174Z,100962.66
2018-09-03T21:00:14.204Z,100965.83
2018-09-03T21:02:44.155Z,100963.78
2018-09-03T21:05:14.017Z,100956.45
2018-09-03T21:07:43.824Z,100962.66
2018-09-03T21:10:13.620Z,100961.88
2018-09-03T21:12:43.349Z,100954.84
2018-09-03T21:15:13.546Z,100957.06
2018-09-03T21:17:43.324Z,100954.44
2018-09-03T21:20:13.106Z,100957.92
2018-09-03T21:22:42.856Z,100964.43
2018-09-03T21:25:12.917Z,100958.18
2018-09-03T21:27:42.801Z,100957.77
2018-09-03T21:30:13.032Z,100965.25
2018-09-03T21:35:24.561Z,100972.03
2018-09-03T21:40:31.710Z,100978.61
2018-09-03T21:43:01.516Z,100971.66
2018-09-03T21:45:33.424Z,100972.97
2018-09-03T21:48:03.808Z,100970.00
2018-09-03T21:50:33.881Z,100974.40
2018-09-03T21:53:03.600Z,100979.25
2018-09-03T21:55:38.042Z,100979.25
2018-09-03T21:58:12.411Z,100982.27
2018-09-03T22:00:44.551Z,100992.14
2018-09-03T22:03:15.020Z,100985.73
2018-09-03T22:08:27.225Z,100990.75
2018-09-03T22:10:56.969Z,100989.77
2018-09-03T22:13:27.062Z,100989.22
2018-09-03T22:16:00.155Z,100987.58
2018-09-03T22:18:35.870Z,100987.34
2018-09-03T22:21:05.994Z,100979.44
2018-09-03T22:23:36.238Z,100978.66
2018-09-03T22:26:06.099Z,100979.23
2018-09-03T22:28:36.018Z,100977.14
2018-09-03T22:31:05.886Z,100978.12
2018-09-03T22:33:35.621Z,100975.98
2018-09-03T22:36:05.411Z,100976.36
2018-09-03T22:38:35.080Z,100980.75
2018-09-03T22:41:05.482Z,100979.96
2018-09-03T22:43:35.275Z,100974.81
2018-09-03T22:46:04.981Z,100979.70
2018-09-03T22:48:34.693Z,100974.97
2018-09-03T22:51:04.461Z,100974.59
2018-09-03T22:53:35.071Z,100971.09
2018-09-03T22:56:04.817Z,100972.03
2018-09-03T22:58:34.617Z,100972.78
2018-09-03T23:01:04.338Z,100971.88
2018-09-03T23:03:34.188Z,100967.53
2018-09-03T23:06:03.855Z,100973.72
2018-09-03T23:08:33.509Z,100976.01
2018-09-03T23:11:03.246Z,100963.83
2018-09-03T23:13:32.933Z,100971.50
2018-09-03T23:16:02.602Z,100970.46
2018-09-03T23:18:32.360Z,100967.19
2018-09-03T23:21:02.497Z,100965.63
2018-09-03T23:23:32.277Z,100963.52
2018-09-03T23:26:01.952Z,100964.89
2018-09-03T23:28:31.659Z,100964.06
2018-09-03T23:31:01.385Z,100963.23
2018-09-03T23:33:31.086Z,100960.66
2018-09-03T23:36:00.831Z,100964.64
2018-09-03T23:38:30.614Z,100963.39
2018-09-03T23:41:00.408Z,100958.58
2018-09-03T23:43:30.173Z,100958.19
2018-09-03T23:45:59.945Z,100953.86
2018-09-03T23:48:29.659Z,100953.86
2018-09-03T23:50:59.461Z,100953.83
2018-09-03T23:53:29.376Z,100956.40
2018-09-03T23:55:59.230Z,100955.92
2018-09-03T23:58:28.902Z,100957.62
